Portada
METAR-TAF:

METAR-TAF

Aeropuertos :

Gran Canaria, España

Aeropuerto de Gran Canaria

latitud: 27-56N, longitud: 015-23W, altitud: 23 m

Observación

El informe se hizo hace 32 minutos, a las 06:30 UTC
Viento 13 kt del norte-noreste
Temperatura 24°C
Humedad 74%
Presión 1014 hPa
Visibilidad 10 km o más
sin nubes por debajo de 1500 m y sin presencia de cumulonimbus.

METAR: GCLP 240630Z 02013KT CAVOK 24/19 Q1014 NOSIG

Hora: 08:02 (07:02 UTC)

Pronóstico

El informe se hizo hace 17 horas y 2 minutos, a las 14:00 UTC
Pronóstico válido del 23 a las 15 UTC al 24 a las 15 UTC
Viento 15 kt del norte
Visibilidad 10 km o más
sin nubes por debajo de 1500 m y sin presencia de cumulonimbus.

TAF: GCLP 231400Z 2315/2415 36015KT CAVOK TX31/2413Z TN24/2405Z

Observaciones y pronósticos meteorológicos de más de 4000 aeropuertos (mensajes METAR y TAF).

Los puntos amarillos y rojos representan las estaciones disponibles.

Ponga el ratón en el punto deseado para ver el nombre de la estación.

Haga clic para ver las observaciones y los pronósticos meteorológicos.

Para cambiar el mapa : haga clic en los botones verdes con una cruz de color negro para hacer un zoom, en el botón verde con un guión para alejar o en las flechas verdes para mapas adyacentes.


METAR-TAF: